createdAt,value
2023-04-27T00:00:12.462Z,4.35
2023-04-27T00:02:42.236Z,4.29
2023-04-27T00:05:14.019Z,4.33
2023-04-27T00:07:43.156Z,4.23
2023-04-27T00:10:12.429Z,4.18
2023-04-27T00:12:42.280Z,4.23
2023-04-27T00:15:12.426Z,4.12
2023-04-27T00:17:41.604Z,4.11
2023-04-27T00:20:14.394Z,4.11
2023-04-27T00:22:43.053Z,4.16
2023-04-27T00:25:13.849Z,4.14
2023-04-27T00:27:42.747Z,4.09
2023-04-27T00:30:13.117Z,3.99
2023-04-27T00:32:42.995Z,3.93
2023-04-27T00:35:14.231Z,3.76
2023-04-27T00:37:42.719Z,3.98
2023-04-27T00:40:12.533Z,3.88
2023-04-27T00:42:41.509Z,3.85
2023-04-27T00:45:11.642Z,3.94
2023-04-27T00:47:40.373Z,3.90
2023-04-27T00:50:10.935Z,3.70
2023-04-27T00:52:41.888Z,3.80
2023-04-27T00:55:11.639Z,3.70
2023-04-27T00:57:40.801Z,3.78
2023-04-27T01:00:12.076Z,3.74
2023-04-27T01:02:41.984Z,3.71
2023-04-27T01:05:11.554Z,3.55
2023-04-27T01:07:42.925Z,3.78
2023-04-27T01:10:12.326Z,3.72
2023-04-27T01:12:41.528Z,3.72
2023-04-27T01:15:11.733Z,3.72
2023-04-27T01:17:41.163Z,3.61
2023-04-27T01:20:11.241Z,3.70
2023-04-27T01:22:43.701Z,3.68
2023-04-27T01:25:14.342Z,3.68
2023-04-27T01:27:43.029Z,3.59
2023-04-27T01:30:11.911Z,3.59
2023-04-27T01:32:40.652Z,3.57
2023-04-27T01:35:10.279Z,3.44
2023-04-27T01:37:39.893Z,3.49
2023-04-27T01:40:09.946Z,3.52
2023-04-27T01:42:39.910Z,3.52
2023-04-27T01:45:09.637Z,3.48
2023-04-27T01:47:38.527Z,3.33
2023-04-27T01:50:08.260Z,3.41
2023-04-27T01:52:37.160Z,3.34
2023-04-27T01:55:06.670Z,3.29
2023-04-27T01:57:36.006Z,3.21
2023-04-27T02:00:08.552Z,3.23
2023-04-27T02:02:38.221Z,3.19
2023-04-27T02:05:07.888Z,3.27
2023-04-27T02:07:36.264Z,3.29
2023-04-27T02:10:05.054Z,3.23
2023-04-27T02:12:33.912Z,3.24
2023-04-27T02:15:04.104Z,3.23
2023-04-27T02:17:36.379Z,3.24
2023-04-27T02:20:07.052Z,3.15
2023-04-27T02:22:35.911Z,3.18
2023-04-27T02:25:06.234Z,3.28
2023-04-27T02:27:35.193Z,3.29
2023-04-27T02:30:07.365Z,3.06
2023-04-27T02:32:38.373Z,3.01
2023-04-27T02:35:08.166Z,3.06
2023-04-27T02:37:37.233Z,3.02
2023-04-27T02:40:08.126Z,3.00
2023-04-27T02:42:38.940Z,2.81
2023-04-27T02:45:09.516Z,2.80
2023-04-27T02:47:40.317Z,2.75
2023-04-27T02:50:10.066Z,2.87
2023-04-27T02:52:38.923Z,2.93
2023-04-27T02:55:08.332Z,2.99
2023-04-27T02:57:37.498Z,2.81
2023-04-27T03:00:10.635Z,2.75
2023-04-27T03:02:41.167Z,2.94
2023-04-27T03:05:11.882Z,2.82
2023-04-27T03:07:40.969Z,2.91
2023-04-27T03:10:11.187Z,2.79
2023-04-27T03:12:40.632Z,2.80
2023-04-27T03:15:10.647Z,2.74
2023-04-27T03:17:41.744Z,2.79
2023-04-27T03:20:12.685Z,2.83
2023-04-27T03:22:41.724Z,2.78
2023-04-27T03:25:11.025Z,2.75
2023-04-27T03:27:39.693Z,2.69
2023-04-27T03:30:10.249Z,2.63
2023-04-27T03:32:40.646Z,2.68
2023-04-27T03:35:11.045Z,2.54
2023-04-27T03:37:40.159Z,2.61
2023-04-27T03:40:10.210Z,2.64
2023-04-27T03:42:38.908Z,2.72
2023-04-27T03:45:08.730Z,2.78
2023-04-27T03:47:37.573Z,2.85
2023-04-27T03:50:08.530Z,2.75
2023-04-27T03:52:37.395Z,2.73
2023-04-27T03:55:07.766Z,2.55
2023-04-27T03:57:36.446Z,2.71
2023-04-27T04:00:08.448Z,2.66
2023-04-27T04:02:37.328Z,2.68
2023-04-27T04:05:08.998Z,2.64
2023-04-27T04:07:38.002Z,2.71
2023-04-27T04:10:07.432Z,2.77
2023-04-27T04:12:36.950Z,2.64
2023-04-27T04:15:05.848Z,2.56
2023-04-27T04:17:35.659Z,2.61
2023-04-27T04:20:08.679Z,2.51
2023-04-27T04:22:39.572Z,2.41
2023-04-27T04:25:09.286Z,2.48
2023-04-27T04:27:38.428Z,2.43
2023-04-27T04:30:08.472Z,2.44
2023-04-27T04:32:39.028Z,2.47
2023-04-27T04:35:08.974Z,2.53
2023-04-27T04:37:38.839Z,2.66
2023-04-27T04:40:11.776Z,2.69
2023-04-27T04:42:40.391Z,2.83
2023-04-27T04:45:09.716Z,2.87
2023-04-27T04:47:37.970Z,3.04
2023-04-27T04:50:07.300Z,3.01
2023-04-27T04:52:35.420Z,3.16
2023-04-27T04:55:05.618Z,3.27
2023-04-27T04:57:35.087Z,3.36
2023-04-27T05:00:04.062Z,3.47
2023-04-27T05:02:32.920Z,3.58
2023-04-27T05:05:01.848Z,3.63
2023-04-27T05:07:30.265Z,3.67
2023-04-27T05:09:58.904Z,3.80
2023-04-27T05:12:29.202Z,3.57
2023-04-27T05:14:57.523Z,3.34
2023-04-27T05:17:26.049Z,3.50
2023-04-27T05:19:54.807Z,3.58
2023-04-27T05:22:23.123Z,3.63
2023-04-27T05:24:52.352Z,3.60
2023-04-27T05:27:21.314Z,3.72
2023-04-27T05:29:51.969Z,3.97
2023-04-27T05:32:20.500Z,3.88
2023-04-27T05:34:49.697Z,4.06
2023-04-27T05:37:18.534Z,4.04
2023-04-27T05:39:47.432Z,4.18
2023-04-27T05:42:15.708Z,4.35
2023-04-27T05:44:44.198Z,4.52
2023-04-27T05:47:15.039Z,4.56
2023-04-27T05:49:43.711Z,4.90
2023-04-27T05:52:12.209Z,4.80
2023-04-27T05:54:41.921Z,4.88
2023-04-27T05:57:10.316Z,4.92
2023-04-27T05:59:39.056Z,5.11
2023-04-27T06:02:08.425Z,5.35
2023-04-27T06:04:38.913Z,5.27
2023-04-27T06:07:11.729Z,5.53
2023-04-27T06:09:41.209Z,5.57
2023-04-27T06:12:10.875Z,5.63
2023-04-27T06:14:40.069Z,5.47
2023-04-27T06:17:08.735Z,5.17
2023-04-27T06:19:39.195Z,5.52
2023-04-27T06:22:07.856Z,5.67
2023-04-27T06:24:37.024Z,6.13
2023-04-27T06:27:09.232Z,6.43
2023-04-27T06:29:37.910Z,6.30
2023-04-27T06:32:07.863Z,6.55
2023-04-27T06:34:38.213Z,6.69
2023-04-27T06:37:06.872Z,6.99
2023-04-27T06:39:35.558Z,7.44
2023-04-27T06:42:05.058Z,7.60
2023-04-27T06:44:33.760Z,6.90
2023-04-27T06:47:02.848Z,7.12
2023-04-27T06:49:31.787Z,7.40
2023-04-27T06:52:03.571Z,7.43
2023-04-27T06:54:33.293Z,7.64
2023-04-27T06:57:02.621Z,7.40
2023-04-27T06:59:31.203Z,7.55
2023-04-27T07:02:00.358Z,7.75
2023-04-27T07:04:29.380Z,7.64
2023-04-27T07:07:00.172Z,7.45
2023-04-27T07:09:31.043Z,7.34
2023-04-27T07:12:01.430Z,7.35
2023-04-27T07:14:30.341Z,7.39
2023-04-27T07:16:59.632Z,7.31
2023-04-27T07:19:28.211Z,7.36
2023-04-27T07:21:56.896Z,7.44
2023-04-27T07:24:27.019Z,7.54
2023-04-27T07:26:58.340Z,8.02
2023-04-27T07:29:28.925Z,8.35
2023-04-27T07:31:58.260Z,8.56
2023-04-27T07:34:30.780Z,8.16
2023-04-27T07:37:04.737Z,8.66
2023-04-27T07:39:33.924Z,8.42
2023-04-27T07:42:05.483Z,8.19
2023-04-27T07:44:34.897Z,8.37
2023-04-27T07:47:05.029Z,8.76
2023-04-27T07:49:34.625Z,9.02
2023-04-27T07:52:04.576Z,9.17
2023-04-27T07:54:33.082Z,9.70
2023-04-27T07:57:02.734Z,9.87
2023-04-27T07:59:33.776Z,8.81
2023-04-27T08:04:34.625Z,9.60
2023-04-27T08:07:05.135Z,9.69
2023-04-27T08:09:35.112Z,9.85
2023-04-27T08:12:05.081Z,9.78
2023-04-27T08:14:36.478Z,9.89
2023-04-27T08:17:05.973Z,9.82
2023-04-27T08:19:34.632Z,10.14
2023-04-27T08:22:03.760Z,10.19
2023-04-27T08:24:32.875Z,10.17
2023-04-27T08:27:01.739Z,10.12
2023-04-27T08:29:30.758Z,10.07
2023-04-27T08:32:04.249Z,10.29
2023-04-27T08:34:32.925Z,10.28
2023-04-27T08:37:02.464Z,10.65
2023-04-27T08:39:31.051Z,10.53
2023-04-27T08:42:00.348Z,10.26
2023-04-27T08:44:29.012Z,10.22
2023-04-27T08:46:57.783Z,10.37
2023-04-27T08:49:28.688Z,10.49
2023-04-27T08:51:57.382Z,10.46
2023-04-27T08:54:26.726Z,10.57
2023-04-27T08:56:55.924Z,10.36
2023-04-27T08:59:25.198Z,10.48
2023-04-27T09:01:54.938Z,10.56
2023-04-27T09:04:25.103Z,10.74
2023-04-27T09:06:56.234Z,10.82
2023-04-27T09:09:25.581Z,10.78
2023-04-27T09:11:54.581Z,10.87
2023-04-27T09:14:25.025Z,10.77
2023-04-27T09:16:59.736Z,10.82
2023-04-27T09:19:30.563Z,10.85
2023-04-27T09:22:22.775Z,10.84
2023-04-27T09:24:55.387Z,10.94
2023-04-27T09:27:25.092Z,11.12
2023-04-27T09:29:54.155Z,11.43
2023-04-27T09:32:24.409Z,11.28
2023-04-27T09:34:54.534Z,11.19
2023-04-27T09:37:27.390Z,11.34
2023-04-27T09:39:56.394Z,11.51
2023-04-27T09:42:27.261Z,11.78
2023-04-27T09:44:56.734Z,12.11
2023-04-27T09:47:29.357Z,12.41
2023-04-27T09:50:01.095Z,12.35
2023-04-27T09:52:31.300Z,12.27
2023-04-27T09:55:03.865Z,12.40
2023-04-27T09:57:40.695Z,12.58
2023-04-27T10:00:22.428Z,12.81
2023-04-27T10:03:05.711Z,12.62
2023-04-27T10:05:51.156Z,12.69
2023-04-27T10:08:22.815Z,12.61
2023-04-27T10:10:52.102Z,12.67
2023-04-27T10:13:26.424Z,12.52
2023-04-27T10:15:55.426Z,12.81
2023-04-27T10:18:28.792Z,12.86
2023-04-27T10:20:57.187Z,13.10
2023-04-27T10:23:29.774Z,13.46
2023-04-27T10:26:09.748Z,13.52
2023-04-27T10:28:41.639Z,13.65
2023-04-27T10:31:12.543Z,13.63
2023-04-27T10:33:45.417Z,13.87
2023-04-27T10:36:16.973Z,14.18
2023-04-27T10:38:47.820Z,14.05
2023-04-27T10:41:16.927Z,13.82
2023-04-27T10:43:46.766Z,14.26
2023-04-27T10:46:17.925Z,14.05
2023-04-27T10:48:47.362Z,13.54
2023-04-27T10:51:18.438Z,13.48
2023-04-27T10:53:54.278Z,13.77
2023-04-27T10:56:23.971Z,13.34
2023-04-27T10:58:53.396Z,12.96
2023-04-27T11:01:29.970Z,13.02
2023-04-27T11:04:01.226Z,13.15
2023-04-27T11:06:31.396Z,12.91
2023-04-27T11:09:01.893Z,13.26
2023-04-27T11:11:31.333Z,13.30
2023-04-27T11:14:00.139Z,13.41
2023-04-27T11:16:30.696Z,13.18
2023-04-27T11:19:07.700Z,13.18
2023-04-27T11:21:36.683Z,13.49
2023-04-27T11:24:09.296Z,13.49
2023-04-27T11:26:40.009Z,13.58
2023-04-27T11:29:14.044Z,13.46
2023-04-27T11:31:47.836Z,13.73
2023-04-27T11:34:22.801Z,13.95
2023-04-27T11:37:17.344Z,13.61
2023-04-27T11:39:49.160Z,13.72
2023-04-27T11:42:21.229Z,13.71
2023-04-27T11:44:57.271Z,13.77
2023-04-27T11:47:27.980Z,13.81
2023-04-27T11:50:01.635Z,13.58
2023-04-27T11:52:30.987Z,13.67
2023-04-27T11:55:02.514Z,13.61
2023-04-27T11:57:33.673Z,13.69
2023-04-27T12:00:11.589Z,13.55
2023-04-27T12:02:41.837Z,13.15
2023-04-27T12:05:13.210Z,13.22
2023-04-27T12:07:44.233Z,13.34
2023-04-27T12:10:15.356Z,13.44
2023-04-27T12:12:44.410Z,13.63
2023-04-27T12:15:13.931Z,13.76
2023-04-27T12:17:44.382Z,13.72
2023-04-27T12:20:15.027Z,13.79
2023-04-27T12:22:43.793Z,14.12
2023-04-27T12:25:15.577Z,14.29
2023-04-27T12:27:47.973Z,14.46
2023-04-27T12:30:17.468Z,14.47
2023-04-27T12:32:46.886Z,14.53
2023-04-27T12:35:16.784Z,14.53
2023-04-27T12:37:46.080Z,14.87
2023-04-27T12:40:16.642Z,15.06
2023-04-27T12:42:45.519Z,14.79
2023-04-27T12:45:14.112Z,15.00
2023-04-27T12:48:01.007Z,14.72
2023-04-27T12:50:32.829Z,14.81
2023-04-27T12:53:01.989Z,14.76
2023-04-27T12:55:34.115Z,14.88
2023-04-27T12:58:03.021Z,14.83
2023-04-27T13:00:32.468Z,14.65
2023-04-27T13:03:00.939Z,15.13
2023-04-27T13:05:31.702Z,15.22
2023-04-27T13:08:00.696Z,15.35
2023-04-27T13:10:29.807Z,15.28
2023-04-27T13:13:00.569Z,15.14
2023-04-27T13:15:29.910Z,15.10
2023-04-27T13:17:59.309Z,15.04
2023-04-27T13:20:27.820Z,14.88
2023-04-27T13:22:56.713Z,14.81
2023-04-27T13:25:25.309Z,14.46
2023-04-27T13:27:54.103Z,14.70
2023-04-27T13:30:25.004Z,14.91
2023-04-27T13:32:54.091Z,15.04
2023-04-27T13:35:24.010Z,14.95
2023-04-27T13:37:54.392Z,14.88
2023-04-27T13:40:23.161Z,14.42
2023-04-27T13:42:52.493Z,14.30
2023-04-27T13:45:21.454Z,14.27
2023-04-27T13:47:51.932Z,14.44
2023-04-27T13:50:20.463Z,14.46
2023-04-27T13:52:48.780Z,14.65
2023-04-27T13:55:17.210Z,14.52
2023-04-27T13:57:45.519Z,14.44
2023-04-27T14:00:15.167Z,14.64
2023-04-27T14:02:43.482Z,14.72
2023-04-27T14:05:13.794Z,14.82
2023-04-27T14:07:42.150Z,14.78
2023-04-27T14:10:11.431Z,14.62
2023-04-27T14:12:40.136Z,14.89
2023-04-27T14:15:10.132Z,15.22
2023-04-27T14:17:38.907Z,15.72
2023-04-27T14:20:08.887Z,16.09
2023-04-27T14:22:39.133Z,15.93
2023-04-27T14:25:08.674Z,15.99
2023-04-27T14:27:37.511Z,16.19
2023-04-27T14:30:07.426Z,15.94
2023-04-27T14:32:36.899Z,15.84
2023-04-27T14:35:06.467Z,15.90
2023-04-27T14:37:35.447Z,15.90
2023-04-27T14:40:07.263Z,15.73
2023-04-27T14:42:36.224Z,15.67
2023-04-27T14:45:05.319Z,16.12
2023-04-27T14:47:34.103Z,15.92
2023-04-27T14:50:03.204Z,16.18
2023-04-27T14:52:32.111Z,16.09
2023-04-27T14:55:01.192Z,15.73
2023-04-27T14:57:32.215Z,15.33
2023-04-27T15:00:01.745Z,15.20
2023-04-27T15:02:32.423Z,15.20
2023-04-27T15:05:02.424Z,15.25
2023-04-27T15:07:30.995Z,15.37
2023-04-27T15:09:59.651Z,15.67
2023-04-27T15:12:28.284Z,15.96
2023-04-27T15:14:58.684Z,15.90
2023-04-27T15:17:28.476Z,15.57
2023-04-27T15:19:57.116Z,15.33
2023-04-27T15:22:25.449Z,14.87
2023-04-27T15:24:54.685Z,14.86
2023-04-27T15:27:23.030Z,14.88
2023-04-27T15:29:51.788Z,15.11
2023-04-27T15:32:23.381Z,15.33
2023-04-27T15:34:52.032Z,15.55
2023-04-27T15:37:20.608Z,15.48
2023-04-27T15:39:49.602Z,15.62
2023-04-27T15:42:27.455Z,15.58
2023-04-27T15:44:57.388Z,15.36
2023-04-27T15:47:28.626Z,15.32
2023-04-27T15:49:58.361Z,15.19
2023-04-27T15:52:28.964Z,15.29
2023-04-27T15:54:58.318Z,15.19
2023-04-27T15:57:27.311Z,15.26
2023-04-27T15:59:56.220Z,15.48
2023-04-27T16:02:24.914Z,15.82
2023-04-27T16:04:56.151Z,15.90
2023-04-27T16:07:25.516Z,16.64
2023-04-27T16:09:54.319Z,16.63
2023-04-27T16:12:24.786Z,16.22
2023-04-27T16:14:57.898Z,15.99
2023-04-27T16:17:26.461Z,15.32
2023-04-27T16:19:56.907Z,15.67
2023-04-27T16:22:25.854Z,15.74
2023-04-27T16:24:56.213Z,15.53
2023-04-27T16:27:25.616Z,15.36
2023-04-27T16:29:54.265Z,16.39
2023-04-27T16:32:24.207Z,15.98
2023-04-27T16:34:54.581Z,15.82
2023-04-27T16:37:24.871Z,15.57
2023-04-27T16:39:54.100Z,15.30
2023-04-27T16:42:23.254Z,14.99
2023-04-27T16:44:52.151Z,14.64
2023-04-27T16:47:22.643Z,14.44
2023-04-27T16:49:54.018Z,14.31
2023-04-27T16:52:24.417Z,14.19
2023-04-27T16:54:53.202Z,14.10
2023-04-27T16:57:21.914Z,14.00
2023-04-27T16:59:58.980Z,14.06
2023-04-27T17:02:27.792Z,14.07
2023-04-27T17:04:56.608Z,14.03
2023-04-27T17:07:28.721Z,14.10
2023-04-27T17:09:57.586Z,14.25
2023-04-27T17:12:26.922Z,14.41
2023-04-27T17:14:55.156Z,14.55
2023-04-27T17:17:24.082Z,14.63
2023-04-27T17:19:53.073Z,14.69
2023-04-27T17:22:21.490Z,14.73
2023-04-27T17:24:52.245Z,14.90
2023-04-27T17:27:21.938Z,14.93
2023-04-27T17:29:51.831Z,14.76
2023-04-27T17:32:20.502Z,14.67
2023-04-27T17:34:49.769Z,14.62
2023-04-27T17:37:19.064Z,14.61
2023-04-27T17:39:48.140Z,14.39
2023-04-27T17:42:19.031Z,14.34
2023-04-27T17:44:48.480Z,14.30
2023-04-27T17:47:19.106Z,14.16
2023-04-27T17:49:48.626Z,13.99
2023-04-27T17:52:16.889Z,13.87
2023-04-27T17:54:46.276Z,13.71
2023-04-27T17:57:15.119Z,13.62
2023-04-27T17:59:45.628Z,13.44
2023-04-27T18:02:15.082Z,13.33
2023-04-27T18:04:43.887Z,13.20
2023-04-27T18:07:13.042Z,13.14
2023-04-27T18:09:42.239Z,13.04
2023-04-27T18:12:11.395Z,12.90
2023-04-27T18:14:40.135Z,12.74
2023-04-27T18:17:10.269Z,12.61
2023-04-27T18:19:39.769Z,12.42
2023-04-27T18:22:08.343Z,12.31
2023-04-27T18:24:37.989Z,12.13
2023-04-27T18:27:06.327Z,11.95
2023-04-27T18:29:35.229Z,11.93
2023-04-27T18:32:06.219Z,11.80
2023-04-27T18:34:36.908Z,11.83
2023-04-27T18:37:05.895Z,11.78
2023-04-27T18:39:34.486Z,11.80
2023-04-27T18:42:03.451Z,11.74
2023-04-27T18:44:31.940Z,11.81
2023-04-27T18:47:04.179Z,11.72
2023-04-27T18:49:32.972Z,11.56
2023-04-27T18:52:07.491Z,11.45
2023-04-27T18:54:35.921Z,11.39
2023-04-27T18:57:04.906Z,11.35
2023-04-27T18:59:33.914Z,11.43
2023-04-27T19:02:02.624Z,11.37
2023-04-27T19:04:32.255Z,11.30
2023-04-27T19:07:00.932Z,11.14
2023-04-27T19:09:31.273Z,11.02
2023-04-27T19:12:03.189Z,10.83
2023-04-27T19:14:32.782Z,10.79
2023-04-27T19:17:01.243Z,10.71
2023-04-27T19:19:29.516Z,10.65
2023-04-27T19:21:58.489Z,10.53
2023-04-27T19:24:27.604Z,10.49
2023-04-27T19:26:58.036Z,10.65
2023-04-27T19:29:27.531Z,10.50
2023-04-27T19:31:56.523Z,10.35
2023-04-27T19:34:25.431Z,10.47
2023-04-27T19:36:54.032Z,10.39
2023-04-27T19:39:22.907Z,10.35
2023-04-27T19:41:51.191Z,10.27
2023-04-27T19:44:21.104Z,10.22
2023-04-27T19:46:50.193Z,10.18
2023-04-27T19:49:18.484Z,10.14
2023-04-27T19:51:46.988Z,10.07
2023-04-27T19:54:15.963Z,9.97
2023-04-27T19:56:44.563Z,9.99
2023-04-27T19:59:13.407Z,9.90
2023-04-27T20:01:43.082Z,9.89
2023-04-27T20:04:11.949Z,9.90
2023-04-27T20:06:42.912Z,9.87
2023-04-27T20:09:12.103Z,9.81
2023-04-27T20:11:40.513Z,9.74
2023-04-27T20:14:08.891Z,9.80
2023-04-27T20:16:38.536Z,9.70
2023-04-27T20:19:08.751Z,9.64
2023-04-27T20:21:37.414Z,9.71
2023-04-27T20:24:06.568Z,9.69
2023-04-27T20:26:34.924Z,9.58
2023-04-27T20:29:03.371Z,9.59
2023-04-27T20:31:31.825Z,9.60
2023-04-27T20:34:00.059Z,9.47
2023-04-27T20:36:30.079Z,9.54
2023-04-27T20:39:01.015Z,9.49
2023-04-27T20:41:29.507Z,9.46
2023-04-27T20:43:58.720Z,9.46
2023-04-27T20:46:27.564Z,9.41
2023-04-27T20:48:55.962Z,9.37
2023-04-27T20:51:24.341Z,9.29
2023-04-27T20:53:54.209Z,9.28
2023-04-27T20:56:22.634Z,9.21
2023-04-27T20:58:51.053Z,9.07
2023-04-27T21:01:19.530Z,8.95
2023-04-27T21:03:48.181Z,8.80
2023-04-27T21:06:17.034Z,8.72
2023-04-27T21:08:45.429Z,8.63
2023-04-27T21:11:17.354Z,8.52
2023-04-27T21:13:46.449Z,8.47
2023-04-27T21:16:14.578Z,8.38
2023-04-27T21:18:42.798Z,8.37
2023-04-27T21:21:11.500Z,8.30
2023-04-27T21:23:39.982Z,8.25
2023-04-27T21:26:08.813Z,8.18
2023-04-27T21:28:38.638Z,8.17
2023-04-27T21:31:07.127Z,8.15
2023-04-27T21:33:35.773Z,8.16
2023-04-27T21:36:05.025Z,8.19
2023-04-27T21:38:33.451Z,8.20
2023-04-27T21:41:02.063Z,8.17
2023-04-27T21:43:30.452Z,8.23
2023-04-27T21:46:00.135Z,8.29
2023-04-27T21:48:28.453Z,8.31
2023-04-27T21:50:56.774Z,8.22
2023-04-27T21:53:25.911Z,8.29
2023-04-27T21:55:57.814Z,8.33
2023-04-27T21:58:26.252Z,8.26
2023-04-27T22:00:56.280Z,8.22
2023-04-27T22:03:26.825Z,8.30
2023-04-27T22:05:57.732Z,8.32
2023-04-27T22:08:26.157Z,8.29
2023-04-27T22:10:54.444Z,8.29
2023-04-27T22:13:22.698Z,8.27
2023-04-27T22:15:51.272Z,8.29
2023-04-27T22:18:19.958Z,8.29
2023-04-27T22:20:50.231Z,8.28
2023-04-27T22:23:18.514Z,8.23
2023-04-27T22:25:47.046Z,8.16
2023-04-27T22:28:15.503Z,8.29
2023-04-27T22:30:44.168Z,8.33
2023-04-27T22:33:12.849Z,8.29
2023-04-27T22:35:41.228Z,8.28
2023-04-27T22:38:11.039Z,8.28
2023-04-27T22:40:39.594Z,8.22
2023-04-27T22:43:07.702Z,8.31
2023-04-27T22:45:38.150Z,8.32
2023-04-27T22:48:08.005Z,8.34
2023-04-27T22:50:36.407Z,8.32
2023-04-27T22:53:04.860Z,8.30
2023-04-27T22:55:34.448Z,8.24
2023-04-27T22:58:02.580Z,8.23
2023-04-27T23:00:30.864Z,8.24
2023-04-27T23:02:59.301Z,8.23
2023-04-27T23:05:29.490Z,8.20
2023-04-27T23:07:58.021Z,8.19
2023-04-27T23:10:26.874Z,8.15
2023-04-27T23:12:57.153Z,8.15
2023-04-27T23:15:25.281Z,8.15
2023-04-27T23:17:53.592Z,8.16
2023-04-27T23:20:28.105Z,8.11
2023-04-27T23:22:57.418Z,8.18
2023-04-27T23:25:26.128Z,8.19
2023-04-27T23:27:54.899Z,8.21
2023-04-27T23:30:24.535Z,8.20
2023-04-27T23:32:53.336Z,8.15
2023-04-27T23:35:22.174Z,8.17
2023-04-27T23:37:50.421Z,8.16
2023-04-27T23:40:18.856Z,8.14
2023-04-27T23:42:49.044Z,8.17
2023-04-27T23:45:18.652Z,8.18
2023-04-27T23:47:49.387Z,8.18
2023-04-27T23:50:17.809Z,8.13
2023-04-27T23:52:46.064Z,8.13
2023-04-27T23:55:14.355Z,8.10
2023-04-27T23:57:42.891Z,8.08
